Time;durP1;ratioP1;P1;durP2;ratioP2;P2;SDS_P1;SDS_P2;PMS_P1;PMS_P2;Temp;Humidity;BMP_temperature;BMP_pressure;BME280_temperature;BME280_humidity;BME280_pressure;Samples;Min_cycle;Max_cycle;Signal;HPM_P1;HPM_P2
2023/01/03 00:01:48;;;;;;;;;;;;;;;-144.99;100.00;52623.38;5055156;28;20010;-68
2023/01/03 00:04:15;;;;;;;;;;;;;;;-144.99;100.00;52625.44;5066418;28;19978;-67
2023/01/03 00:06:43;;;;;;;;;;;;;;;-144.99;100.00;52578.53;5058290;28;20004;-70
2023/01/03 00:09:11;;;;;;;;;;;;;;;-144.99;100.00;52603.00;5051496;28;20044;-65
2023/01/03 00:14:24;;;;;;;;;;;;;;;-144.99;100.00;52619.31;5051291;28;19949;-64
2023/01/03 00:16:52;;;;;;;;;;;;;;;-144.99;100.00;52594.84;5052251;28;19994;-66
2023/01/03 00:19:18;;;;;;;;;;;;;;;-144.99;100.00;52594.84;5052399;28;19971;-75
2023/01/03 00:21:45;;;;;;;;;;;;;;;-144.99;100.00;52623.38;5053565;28;20544;-67
2023/01/03 00:24:12;;;;;;;;;;;;;;;-144.99;100.00;52554.09;5054624;28;20382;-73
2023/01/03 00:26:40;;;;;;;;;;;;;;;-144.99;100.00;52639.69;5058484;28;20036;-73
2023/01/03 00:29:07;;;;;;;;;;;;;;;-144.99;100.00;52609.13;5073095;28;20029;-74
2023/01/03 00:31:35;;;;;;;;;;;;;;;-144.99;100.00;52598.94;5075893;28;19946;-73
2023/01/03 00:34:01;;;;;;;;;;;;;;;-144.99;100.00;52611.16;5069335;28;19945;-74
2023/01/03 00:36:28;;;;;;;;;;;;;;;-144.99;100.00;52594.84;5064813;28;19976;-74
2023/01/03 00:38:55;;;;;;;;;;;;;;;-144.99;100.00;52611.16;5064060;28;19961;-74
2023/01/03 00:41:21;;;;;;;;;;;;;;;-144.99;100.00;52566.31;5063159;28;19945;-74
2023/01/03 00:43:49;;;;;;;;;;;;;;;-144.99;99.79;52627.47;5060883;28;19946;-74
2023/01/03 00:46:18;;;;;;;;;;;;;;;-144.99;99.95;52672.31;5064566;28;19940;-80
2023/01/03 00:48:45;;;;;;;;;;;;;;;-144.99;99.57;52623.38;5056402;28;20043;-75
2023/01/03 00:51:12;;;;;;;;;;;;;;;-144.99;99.67;52627.47;5051553;28;20455;-74
2023/01/03 00:53:39;;;;;;;;;;;;;;;-144.99;98.59;52627.47;5062321;28;19950;-74
2023/01/03 00:56:07;;;;;;;;;;;;;;;-144.99;98.26;52611.16;5065346;28;19948;-74
2023/01/03 00:58:34;;;;;;;;;;;;;;;-144.99;100.00;52643.78;5051636;28;19950;-74
2023/01/03 01:01:05;;;;;;;;;;;;;;;-144.99;99.88;52588.75;5051014;28;19955;-73
2023/01/03 01:03:32;;;;;;;;;;;;;;;-144.99;98.77;52598.94;5051315;28;20050;-73
2023/01/03 01:05:58;;;;;;;;;;;;;;;-144.99;99.46;52623.38;5051699;28;19948;-70
2023/01/03 01:08:25;;;;;;;;;;;;;;;-144.99;100.00;52643.78;5050411;28;19995;-66
2023/01/03 01:11:01;;;;;;;;;;;;;;;-144.99;100.00;52627.47;5050766;28;19986;-70
2023/01/03 01:13:28;;;;;;;;;;;;;;;-144.99;100.00;52611.16;5050364;28;20053;-70
2023/01/03 01:15:55;;;;;;;;;;;;;;;-144.99;99.86;52621.34;5050551;28;19952;-72
2023/01/03 01:18:23;;;;;;;;;;;;;;;-144.99;100.00;52635.63;5050378;28;19965;-69
2023/01/03 01:20:49;;;;;;;;;;;;;;;-144.99;99.03;52603.00;5049939;28;20395;-67
2023/01/03 01:23:16;;;;;;;;;;;;;;;-144.99;98.58;52635.63;5050095;28;20022;-67
2023/01/03 01:25:43;;;;;;;;;;;;;;;-144.99;97.61;52619.31;5053844;28;19975;-67
2023/01/03 01:28:09;;;;;;;;;;;;;;;-144.99;95.90;52603.00;5074453;28;20491;-68
2023/01/03 01:30:36;;;;;;;;;;;;;;;-144.99;96.20;52660.09;5066803;28;19965;-67
2023/01/03 01:33:03;;;;;;;;;;;;;;;-144.99;96.07;52590.78;5052245;28;19942;-67
2023/01/03 01:35:31;;;;;;;;;;;;;;;-144.99;95.42;52598.94;5049516;28;20430;-68
2023/01/03 01:37:58;;;;;;;;;;;;;;;-144.99;95.13;52607.09;5049243;28;20293;-68
2023/01/03 01:40:24;;;;;;;;;;;;;;;-144.99;95.46;52619.31;5040673;28;20035;-67
2023/01/03 01:45:36;;;;;;;;;;;;;;;-144.99;95.46;52590.78;5048845;28;19951;-68
2023/01/03 01:48:06;;;;;;;;;;;;;;;-144.99;96.26;52582.63;5048850;28;20063;-68
2023/01/03 01:50:37;;;;;;;;;;;;;;;-144.99;96.03;52603.00;5049070;28;19925;-68
2023/01/03 01:53:07;;;;;;;;;;;;;;;-144.99;97.20;52611.16;5054934;28;20004;-68
2023/01/03 01:55:36;;;;;;;;;;;;;;;-144.99;97.46;52635.63;5054176;28;20359;-67
2023/01/03 01:58:03;;;;;;;;;;;;;;;-144.99;98.20;52578.53;5048908;28;19946;-68
2023/01/03 02:00:29;;;;;;;;;;;;;;;-144.99;99.74;52627.47;5048606;28;20345;-67
2023/01/03 02:02:56;;;;;;;;;;;;;;;-144.99;99.29;52598.94;5048894;28;19980;-67
2023/01/03 02:05:23;;;;;;;;;;;;;;;-144.99;99.93;52603.00;5049498;28;20380;-66
2023/01/03 02:07:51;;;;;;;;;;;;;;;-144.99;100.00;52647.84;5050721;28;20075;-67
2023/01/03 02:10:18;;;;;;;;;;;;;;;-144.99;100.00;52578.53;5049839;28;19968;-67
2023/01/03 02:13:09;;;;;;;;;;;;;;;-144.99;100.00;52586.69;5049093;28;19949;-67
2023/01/03 02:15:51;;;;;;;;;;;;;;;-144.99;100.00;52623.38;5049032;28;20082;-66
2023/01/03 02:18:24;;;;;;;;;;;;;;;-144.99;100.00;52603.00;5049263;28;20216;-67
2023/01/03 02:21:16;;;;;;;;;;;;;;;-144.99;100.00;52635.63;5049395;28;20020;-66
2023/01/03 02:24:05;;;;;;;;;;;;;;;-144.99;100.00;52660.09;5049215;28;20011;-68
2023/01/03 02:26:38;;;;;;;;;;;;;;;-144.99;100.00;52627.47;5049257;28;19949;-68
2023/01/03 02:29:25;;;;;;;;;;;;;;;-144.99;100.00;52590.78;5052892;28;20005;-68
2023/01/03 02:31:57;;;;;;;;;;;;;;;-144.99;100.00;52615.25;5045173;28;20012;-67
2023/01/03 02:34:28;;;;;;;;;;;;;;;-144.99;100.00;52615.25;5051645;28;19942;-68
2023/01/03 02:37:01;;;;;;;;;;;;;;;-144.99;100.00;52586.69;5062374;22;19998;-68
2023/01/03 02:39:30;;;;;;;;;;;;;;;-144.99;100.00;52637.66;5043305;28;20022;-67
2023/01/03 02:44:43;;;;;;;;;;;;;;;-144.99;100.00;52594.84;5047516;28;20429;-68
2023/01/03 02:47:14;;;;;;;;;;;;;;;-144.99;100.00;52603.00;5042487;28;20012;-68
2023/01/03 02:49:42;;;;;;;;;;;;;;;-144.99;100.00;52639.69;5050749;28;20027;-68
2023/01/03 02:52:12;;;;;;;;;;;;;;;-144.99;100.00;52643.78;5048112;28;19979;-64
2023/01/03 02:54:41;;;;;;;;;;;;;;;-144.99;100.00;52631.53;5047747;28;20016;-64
2023/01/03 02:57:10;;;;;;;;;;;;;;;-144.99;100.00;52641.72;5048016;28;20377;-65
2023/01/03 02:59:41;;;;;;;;;;;;;;;-144.99;100.00;52607.09;5047650;28;20006;-65
2023/01/03 03:02:09;;;;;;;;;;;;;;;-144.99;100.00;52676.38;5049138;28;19990;-67
2023/01/03 03:04:37;;;;;;;;;;;;;;;-144.99;100.00;52621.34;5049583;28;20477;-67
2023/01/03 03:07:08;;;;;;;;;;;;;;;-144.99;100.00;52611.16;5049033;28;20020;-68
2023/01/03 03:13:11;;;;;;;;;;;;;;;-144.99;100.00;52615.25;5049477;28;19965;-70
2023/01/03 03:15:17;;;;;;;;;;;;;;;-144.99;99.31;52639.69;5026868;28;19953;-68
2023/01/03 03:17:45;;;;;;;;;;;;;;;-144.99;99.60;52578.53;5051773;28;20004;-68
2023/01/03 03:25:47;;;;;;;;;;;;;;;-144.99;100.00;52611.16;5051702;28;20455;-68
2023/01/03 03:31:02;;;;;;;;;;;;;;;-144.99;100.00;52623.38;5051352;28;19945;-67
2023/01/03 03:33:30;;;;;;;;;;;;;;;-144.99;100.00;52611.16;5050946;28;20034;-67
2023/01/03 03:36:02;;;;;;;;;;;;;;;-144.99;100.00;52611.16;5051540;28;19946;-69
2023/01/03 03:38:31;;;;;;;;;;;;;;;-144.99;100.00;52635.63;5051097;28;20007;-67
2023/01/03 03:46:37;;;;;;;;;;;;;;;-144.99;100.00;52603.00;5045380;28;20132;-73
2023/01/03 03:51:54;;;;;;;;;;;;;;;-144.99;99.57;52603.00;5050259;28;19962;-68
2023/01/03 03:54:22;;;;;;;;;;;;;;;-144.99;100.00;52627.47;5049944;28;19993;-68
2023/01/03 03:56:52;;;;;;;;;;;;;;;-144.99;100.00;52586.69;5050253;28;19945;-68
2023/01/03 03:59:21;;;;;;;;;;;;;;;-144.99;100.00;52627.47;5050126;28;20020;-68
2023/01/03 04:01:48;;;;;;;;;;;;;;;-144.99;100.00;52660.09;5050799;28;19947;-69
2023/01/03 04:04:18;;;;;;;;;;;;;;;-144.99;100.00;52656.00;5050712;28;20197;-70
2023/01/03 04:06:47;;;;;;;;;;;;;;;-144.99;100.00;52647.84;5050692;28;19994;-70
2023/01/03 04:09:15;;;;;;;;;;;;;;;-144.99;100.00;52631.53;5049677;28;19966;-70
2023/01/03 04:11:42;;;;;;;;;;;;;;;-144.99;100.00;52627.47;5049846;28;19988;-69
2023/01/03 04:14:08;;;;;;;;;;;;;;;-144.99;100.00;52633.59;5049726;28;19953;-70
2023/01/03 04:16:39;;;;;;;;;;;;;;;-144.99;100.00;52639.69;5049569;28;20446;-70
2023/01/03 04:19:06;;;;;;;;;;;;;;;-144.99;100.00;52621.34;5049516;28;20361;-70
2023/01/03 04:21:33;;;;;;;;;;;;;;;-144.99;100.00;52668.22;5049693;28;19979;-70
2023/01/03 04:23:59;;;;;;;;;;;;;;;-144.99;100.00;52607.09;5040351;28;19946;-66
2023/01/03 04:26:27;;;;;;;;;;;;;;;-144.99;100.00;52647.84;5046060;28;19974;-69
2023/01/03 04:28:53;;;;;;;;;;;;;;;-144.99;100.00;52635.63;5051649;28;20451;-71
2023/01/03 04:31:20;;;;;;;;;;;;;;;-144.99;100.00;52643.78;5050564;28;20236;-66
2023/01/03 04:33:46;;;;;;;;;;;;;;;-144.99;100.00;52647.84;5050081;28;19990;-67
2023/01/03 04:36:13;;;;;;;;;;;;;;;-144.99;100.00;52668.22;5048823;28;19992;-66
2023/01/03 04:38:39;;;;;;;;;;;;;;;-144.99;100.00;52660.09;5049746;28;20414;-67
2023/01/03 04:41:06;;;;;;;;;;;;;;;-144.99;100.00;52641.72;5048466;28;19952;-66
2023/01/03 04:46:18;;;;;;;;;;;;;;;-144.99;100.00;52611.16;5042188;28;19931;-66
2023/01/03 04:48:45;;;;;;;;;;;;;;;-144.99;100.00;52623.38;5049524;28;20067;-67
2023/01/03 04:51:11;;;;;;;;;;;;;;;-144.99;100.00;52598.94;5048669;28;19983;-66
2023/01/03 04:53:38;;;;;;;;;;;;;;;-144.99;100.00;52647.84;5049618;28;19944;-66
2023/01/03 04:56:05;;;;;;;;;;;;;;;-144.99;100.00;52623.38;5047909;28;20481;-69
2023/01/03 04:58:31;;;;;;;;;;;;;;;-144.99;100.00;52647.84;5049109;28;20020;-71
2023/01/03 05:01:03;;;;;;;;;;;;;;;-144.99;100.00;52643.78;5048041;28;20432;-72
2023/01/03 05:03:30;;;;;;;;;;;;;;;-144.99;100.00;52633.59;5041765;28;19939;-72
2023/01/03 05:05:59;;;;;;;;;;;;;;;-144.99;100.00;52594.84;5049568;28;19976;-72
2023/01/03 05:08:26;;;;;;;;;;;;;;;-144.99;100.00;52619.31;5042801;28;19998;-72
2023/01/03 05:10:53;;;;;;;;;;;;;;;-144.99;100.00;52594.84;5049412;28;19939;-72
2023/01/03 05:13:19;;;;;;;;;;;;;;;-144.99;100.00;52647.84;5035788;28;20082;-73
2023/01/03 05:15:46;;;;;;;;;;;;;;;-144.99;100.00;52586.69;5048858;28;20015;-65
2023/01/03 05:18:14;;;;;;;;;;;;;;;-144.99;100.00;52623.38;5048545;28;20007;-70
2023/01/03 05:26:22;;;;;;;;;;;;;;;-144.99;100.00;52645.81;5005895;28;20363;-68
2023/01/03 05:28:51;;;;;;;;;;;;;;;-144.99;100.00;52656.00;5026814;28;20257;-68
2023/01/03 05:31:17;;;;;;;;;;;;;;;-144.99;100.00;52637.66;5047390;28;19941;-65
2023/01/03 05:33:45;;;;;;;;;;;;;;;-144.99;100.00;52621.34;5048446;28;19943;-66
2023/01/03 05:36:12;;;;;;;;;;;;;;;-144.99;100.00;52590.78;5047564;28;19993;-66
2023/01/03 05:38:38;;;;;;;;;;;;;;;-144.99;100.00;52651.94;5041412;28;20000;-66
2023/01/03 05:41:05;;;;;;;;;;;;;;;-144.99;100.00;52627.47;5047184;28;19960;-67
2023/01/03 05:43:32;;;;;;;;;;;;;;;-144.99;100.00;52619.31;5048648;28;19976;-67
2023/01/03 05:45:59;;;;;;;;;;;;;;;-144.99;100.00;52594.84;5046887;28;20011;-67
2023/01/03 05:48:25;;;;;;;;;;;;;;;-144.99;100.00;52619.31;5048624;28;20426;-66
2023/01/03 05:50:56;;;;;;;;;;;;;;;-144.99;100.00;52615.25;5048060;28;19977;-66
2023/01/03 05:53:22;;;;;;;;;;;;;;;-144.99;100.00;52594.84;5048677;28;20030;-66
2023/01/03 05:55:49;;;;;;;;;;;;;;;-144.99;100.00;52623.38;5047647;28;19987;-67
2023/01/03 05:58:15;;;;;;;;;;;;;;;-144.99;100.00;52609.13;5047321;28;19982;-65
2023/01/03 06:00:42;;;;;;;;;;;;;;;-144.99;100.00;52631.53;5047125;28;20000;-65
2023/01/03 06:03:08;;;;;;;;;;;;;;;-144.99;100.00;52635.63;5047270;28;20036;-66
2023/01/03 06:05:35;;;;;;;;;;;;;;;-144.99;100.00;52641.72;5047463;28;19989;-67
2023/01/03 06:08:02;;;;;;;;;;;;;;;-144.99;100.00;52676.38;5048296;28;19989;-66
2023/01/03 06:10:29;;;;;;;;;;;;;;;-144.99;100.00;52639.69;5047400;28;20060;-65
2023/01/03 06:12:55;;;;;;;;;;;;;;;-144.99;100.00;52611.16;5048432;28;19945;-68
2023/01/03 06:15:22;;;;;;;;;;;;;;;-144.99;100.00;52611.16;5048497;28;19981;-67
2023/01/03 06:17:53;;;;;;;;;;;;;;;-144.99;100.00;52643.78;5046109;28;20029;-67
2023/01/03 06:20:20;;;;;;;;;;;;;;;-144.99;100.00;52649.88;5048207;28;19963;-66
2023/01/03 06:22:46;;;;;;;;;;;;;;;-144.99;100.00;52631.53;5047187;28;19947;-67
2023/01/03 06:25:14;;;;;;;;;;;;;;;-144.99;100.00;52647.84;5048229;28;20023;-66
2023/01/03 06:27:41;;;;;;;;;;;;;;;-144.99;100.00;52611.16;5046303;28;20399;-65
2023/01/03 06:30:08;;;;;;;;;;;;;;;-144.99;100.00;52615.25;5046398;28;20011;-65
2023/01/03 06:32:34;;;;;;;;;;;;;;;-144.99;100.00;52631.53;4695957;28;9999829;-65
2023/01/03 06:35:01;;;;;;;;;;;;;;;-144.99;100.00;52598.94;5043694;28;19997;-65
2023/01/03 06:37:27;;;;;;;;;;;;;;;-144.99;100.00;52676.38;5044960;28;19956;-66
2023/01/03 06:39:54;;;;;;;;;;;;;;;-144.99;100.00;52660.09;5044359;28;20071;-67
2023/01/03 06:42:41;;;;;;;;;;;;;;;-144.99;100.00;52627.47;5044686;28;19998;-66
2023/01/03 06:53:22;;;;;;;;;;;;;;;-144.99;100.00;52607.09;5049092;28;19953;-65
2023/01/03 06:55:49;;;;;;;;;;;;;;;-144.99;96.93;52586.69;5048890;28;20359;-66
2023/01/03 06:58:17;;;;;;;;;;;;;;;-144.99;95.78;52590.78;5048786;28;19950;-65
2023/01/03 07:00:44;;;;;;;;;;;;;;;-144.99;97.95;52627.47;5048109;28;20002;-66
2023/01/03 07:03:11;;;;;;;;;;;;;;;-144.99;99.57;52627.47;5048474;28;19950;-65
2023/01/03 07:05:38;;;;;;;;;;;;;;;-144.99;100.00;52611.16;5048562;28;19958;-66
2023/01/03 07:08:04;;;;;;;;;;;;;;;-144.99;100.00;52603.00;5048584;28;19952;-66
2023/01/03 07:10:31;;;;;;;;;;;;;;;-144.99;100.00;52651.94;5048362;28;20022;-67
2023/01/03 07:15:45;;;;;;;;;;;;;;;-144.99;100.00;52627.47;5048343;28;19997;-67
2023/01/03 07:18:11;;;;;;;;;;;;;;;-144.99;100.00;52647.84;5048724;28;20402;-67
2023/01/03 07:20:40;;;;;;;;;;;;;;;-144.99;100.00;52664.16;5047807;28;19963;-67
2023/01/03 07:23:07;;;;;;;;;;;;;;;-144.99;100.00;52600.97;5047791;28;19985;-67
2023/01/03 07:25:33;;;;;;;;;;;;;;;-144.99;100.00;52619.31;5048063;28;20671;-67
2023/01/03 07:28:00;;;;;;;;;;;;;;;-144.99;100.00;52619.31;5046563;28;19999;-67
2023/01/03 07:30:26;;;;;;;;;;;;;;;-144.99;100.00;52645.81;5046656;28;20016;-66
2023/01/03 07:32:56;;;;;;;;;;;;;;;-144.99;100.00;52639.69;5047547;28;19997;-66
2023/01/03 07:35:22;;;;;;;;;;;;;;;-144.99;100.00;52627.47;5047644;28;20036;-66
2023/01/03 07:37:49;;;;;;;;;;;;;;;-144.99;100.00;52647.84;5048250;28;20315;-67
2023/01/03 07:40:15;;;;;;;;;;;;;;;-144.99;100.00;52635.63;5047764;28;20027;-69
2023/01/03 07:45:25;;;;;;;;;;;;;;;-144.99;100.00;52633.59;5047687;28;20049;-69
2023/01/03 07:47:53;;;;;;;;;;;;;;;-144.99;100.00;52611.16;5047483;28;19997;-68
2023/01/03 07:50:21;;;;;;;;;;;;;;;-144.99;100.00;52627.47;5047917;28;20354;-67
2023/01/03 07:52:47;;;;;;;;;;;;;;;-144.99;100.00;52647.84;5048983;28;20050;-69
2023/01/03 07:55:14;;;;;;;;;;;;;;;-144.99;100.00;52643.78;5047884;28;20051;-68
2023/01/03 07:57:40;;;;;;;;;;;;;;;-144.99;100.00;52635.63;5046704;28;19989;-69
2023/01/03 08:00:07;;;;;;;;;;;;;;;-144.99;100.00;52635.63;4699457;28;10000036;-69
2023/01/03 08:02:35;;;;;;;;;;;;;;;-144.99;100.00;52670.28;5047190;28;20711;-68
2023/01/03 08:05:02;;;;;;;;;;;;;;;-144.99;100.00;52635.63;5047704;28;19925;-68
2023/01/03 08:07:30;;;;;;;;;;;;;;;-144.99;100.00;52688.63;5047784;28;20381;-68
2023/01/03 08:15:26;;;;;;;;;;;;;;;-144.99;99.28;52609.13;5028758;28;19947;-68
2023/01/03 08:17:53;;;;;;;;;;;;;;;-144.99;98.28;52647.84;5046932;28;20026;-68
2023/01/03 08:20:19;;;;;;;;;;;;;;;-144.99;97.99;52629.50;5046885;28;19994;-68
2023/01/03 08:22:47;;;;;;;;;;;;;;;-144.99;98.17;52625.44;5047445;28;21056;-67
2023/01/03 08:25:13;;;;;;;;;;;;;;;-144.99;97.41;52623.38;5046674;28;19963;-67
2023/01/03 08:27:40;;;;;;;;;;;;;;;-144.99;96.81;52598.94;5044838;28;19999;-68
2023/01/03 08:30:07;;;;;;;;;;;;;;;-144.99;96.61;52574.47;5046814;28;19965;-68
2023/01/03 08:32:33;;;;;;;;;;;;;;;-144.99;97.38;52651.94;5046773;28;20355;-68
2023/01/03 08:35:00;;;;;;;;;;;;;;;-144.99;97.97;52623.38;5046881;28;19982;-67
2023/01/03 08:37:27;;;;;;;;;;;;;;;-144.99;98.52;52586.69;5046926;28;20034;-67
2023/01/03 08:39:57;;;;;;;;;;;;;;;-144.99;98.75;52637.66;5059062;22;20002;-68
2023/01/03 08:42:24;;;;;;;;;;;;;;;-144.99;98.34;52611.16;5047086;28;19946;-69
2023/01/03 08:44:54;;;;;;;;;;;;;;;-144.99;98.35;52619.31;5048419;28;20047;-69
2023/01/03 08:47:21;;;;;;;;;;;;;;;-144.99;98.13;52586.69;5034059;28;19929;-69
2023/01/03 08:49:47;;;;;;;;;;;;;;;-144.99;99.95;52578.53;5038651;28;19967;-70
2023/01/03 08:52:14;;;;;;;;;;;;;;;-144.99;100.00;52653.97;5035340;28;19977;-69
2023/01/03 08:54:40;;;;;;;;;;;;;;;-144.99;100.00;52600.97;5029785;28;20008;-68
2023/01/03 08:57:08;;;;;;;;;;;;;;;-144.99;100.00;52623.38;5028027;28;20472;-68
2023/01/03 08:59:35;;;;;;;;;;;;;;;-144.99;99.74;52627.47;5027194;28;20375;-69
2023/01/03 09:02:01;;;;;;;;;;;;;;;-144.99;99.15;52607.09;5028648;28;20392;-69
2023/01/03 09:04:28;;;;;;;;;;;;;;;-144.99;99.24;52627.47;5018394;28;19929;-69
2023/01/03 09:06:55;;;;;;;;;;;;;;;-144.99;99.70;52598.94;5032197;28;19966;-68
2023/01/03 09:09:22;;;;;;;;;;;;;;;-144.99;99.31;52584.66;5031876;28;19963;-68
2023/01/03 09:11:48;;;;;;;;;;;;;;;-144.99;99.05;52582.63;5029746;28;20037;-68
2023/01/03 09:14:16;;;;;;;;;;;;;;;-144.99;98.36;52533.69;5028956;28;20411;-68
2023/01/03 09:16:43;;;;;;;;;;;;;;;-144.99;96.20;52611.16;5030694;28;19954;-68
2023/01/03 09:19:09;;;;;;;;;;;;;;;-144.99;94.60;52562.25;5029453;28;19960;-68
2023/01/03 09:21:36;;;;;;;;;;;;;;;-144.99;92.56;52615.25;5039694;28;20259;-68
2023/01/03 09:24:02;;;;;;;;;;;;;;;-144.99;90.26;52586.69;5026543;28;20037;-68
2023/01/03 09:26:29;;;;;;;;;;;;;;;-144.99;88.17;52598.94;5026866;28;19999;-68
2023/01/03 09:28:55;;;;;;;;;;;;;;;-144.99;86.74;52603.00;5019742;28;20086;-67
2023/01/03 09:31:23;;;;;;;;;;;;;;;-144.99;85.72;52576.50;5034444;28;19973;-68
2023/01/03 09:33:50;;;;;;;;;;;;;;;-144.99;86.07;52578.53;5046520;28;19970;-68
2023/01/03 09:36:16;;;;;;;;;;;;;;;-144.99;86.04;52574.47;5039130;28;19962;-68
2023/01/03 09:38:43;;;;;;;;;;;;;;;-144.99;86.35;52519.44;5027119;28;19950;-68
2023/01/03 09:41:15;;;;;;;;;;;;;;;-144.99;85.75;52586.69;5026794;28;19968;-68
2023/01/03 09:43:43;;;;;;;;;;;;;;;-144.99;83.25;52554.09;5027133;28;19942;-69
2023/01/03 09:46:15;;;;;;;;;;;;;;;-144.99;80.29;52566.31;5026763;28;19946;-68
2023/01/03 09:48:43;;;;;;;;;;;;;;;-144.99;79.41;52562.25;5026682;28;19999;-68
2023/01/03 10:05:17;;;;;;;;;;;;;;;-144.99;72.32;52568.34;5026932;28;20044;-68
2023/01/03 10:08:01;;;;;;;;;;;;;;;-144.99;73.34;52582.63;5027109;28;20013;-68
2023/01/03 10:10:32;;;;;;;;;;;;;;;-144.99;75.10;52564.28;5026785;28;19967;-69
2023/01/03 10:13:05;;;;;;;;;;;;;;;-144.99;76.01;52564.28;5028199;28;19955;-69
2023/01/03 10:15:37;;;;;;;;;;;;;;;-144.99;72.54;52525.56;5050642;28;19962;-71
2023/01/03 10:18:12;;;;;;;;;;;;;;;-144.99;71.05;52558.16;5036782;28;20421;-69
2023/01/03 10:20:43;;;;;;;;;;;;;;;-144.99;70.12;52594.84;5033119;28;20002;-68
2023/01/03 10:23:10;;;;;;;;;;;;;;;-144.99;70.87;52578.53;5035693;28;19942;-69
2023/01/03 10:25:37;;;;;;;;;;;;;;;-144.99;71.69;52541.84;5030256;28;20201;-68
2023/01/03 10:28:10;;;;;;;;;;;;;;;-144.99;72.80;52574.47;5024326;28;19947;-68
2023/01/03 10:30:45;;;;;;;;;;;;;;;-144.99;72.74;52562.25;5043234;28;20004;-68
2023/01/03 10:33:22;;;;;;;;;;;;;;;-144.99;72.55;52570.38;5032618;28;20036;-68
2023/01/03 10:35:50;;;;;;;;;;;;;;;-144.99;73.42;52545.94;5030774;28;19970;-70
2023/01/03 10:38:17;;;;;;;;;;;;;;;-144.99;74.13;52619.31;5030675;28;19954;-73
2023/01/03 10:40:45;;;;;;;;;;;;;;;-144.99;74.00;52570.38;5029962;28;19973;-70
2023/01/03 10:43:16;;;;;;;;;;;;;;;-144.99;73.75;52554.09;5030395;28;20031;-70
2023/01/03 10:45:53;;;;;;;;;;;;;;;-144.99;72.69;52541.84;5030209;28;20047;-68
2023/01/03 10:48:19;;;;;;;;;;;;;;;-144.99;73.24;52578.53;5030734;28;20738;-69
2023/01/03 10:50:46;;;;;;;;;;;;;;;-144.99;71.94;52574.47;5030455;28;19967;-69
2023/01/03 10:53:15;;;;;;;;;;;;;;;-144.99;73.42;52464.41;5037533;28;19945;-69
2023/01/03 10:55:47;;;;;;;;;;;;;;;-144.99;73.83;52427.72;5035736;28;19944;-69
2023/01/03 10:58:16;;;;;;;;;;;;;;;-144.99;65.93;52366.56;5040881;28;20370;-70
2023/01/03 11:00:43;;;;;;;;;;;;;;;-144.99;60.88;52338.03;5030472;28;19970;-71
2023/01/03 11:03:11;;;;;;;;;;;;;;;-144.99;58.83;52354.34;5029404;28;20490;-69
2023/01/03 11:05:39;;;;;;;;;;;;;;;-144.99;55.73;52336.00;5029720;28;19956;-70
2023/01/03 11:08:13;;;;;;;;;;;;;;;-144.99;52.76;52305.41;5029818;28;19966;-69
2023/01/03 11:10:49;;;;;;;;;;;;;;;-144.99;51.16;52321.72;5030147;28;20101;-69
2023/01/03 11:13:21;;;;;;;;;;;;;;;-144.99;50.27;52305.41;5030698;28;20349;-70
2023/01/03 11:15:52;;;;;;;;;;;;;;;-144.99;49.45;52280.97;5029616;28;20372;-69
2023/01/03 11:18:20;;;;;;;;;;;;;;;-144.99;47.84;52289.13;5030190;28;19936;-69
2023/01/03 11:20:49;;;;;;;;;;;;;;;-144.99;47.62;52336.00;5038073;28;19968;-69
2023/01/03 11:23:18;;;;;;;;;;;;;;;-144.99;47.71;52317.66;5035259;28;19953;-68
2023/01/03 11:25:53;;;;;;;;;;;;;;;-144.99;47.54;52272.81;5029167;28;19947;-68
2023/01/03 11:28:37;;;;;;;;;;;;;;;-144.99;47.10;52289.13;5030341;28;19982;-70
2023/01/03 11:31:07;;;;;;;;;;;;;;;-144.99;45.39;52264.66;5040945;28;19968;-69
2023/01/03 11:33:41;;;;;;;;;;;;;;;-144.99;44.56;52256.50;5034761;28;20024;-69
2023/01/03 11:36:19;;;;;;;;;;;;;;;-144.99;41.95;52215.75;5031924;28;19956;-69
2023/01/03 11:38:50;;;;;;;;;;;;;;;-144.99;41.20;52215.75;5033091;28;20401;-69
2023/01/03 11:41:28;;;;;;;;;;;;;;;-144.99;40.65;52232.03;5034315;28;20341;-69
2023/01/03 11:44:05;;;;;;;;;;;;;;;-144.99;39.39;52264.66;5032380;28;20003;-69
2023/01/03 11:46:39;;;;;;;;;;;;;;;-144.99;39.09;52246.31;5030420;28;19946;-69
2023/01/03 11:49:12;;;;;;;;;;;;;;;-144.99;38.49;52238.16;5032164;28;20020;-69
2023/01/03 11:51:42;;;;;;;;;;;;;;;-144.99;38.05;52223.88;5031610;28;20044;-70
2023/01/03 11:54:17;;;;;;;;;;;;;;;-144.99;38.48;52301.34;5044980;28;20451;-70
2023/01/03 11:56:47;;;;;;;;;;;;;;;-144.99;38.36;52285.03;5033004;28;19952;-69
2023/01/03 11:59:24;;;;;;;;;;;;;;;-144.99;37.97;52252.44;5032298;28;20047;-69
2023/01/03 12:02:03;;;;;;;;;;;;;;;-144.99;38.00;52313.56;5032423;28;19967;-68
2023/01/03 12:04:34;;;;;;;;;;;;;;;-144.99;37.47;52211.66;5033686;28;19951;-69
2023/01/03 12:07:08;;;;;;;;;;;;;;;-144.99;37.22;52256.50;5033131;28;20000;-69
2023/01/03 12:09:39;;;;;;;;;;;;;;;-144.99;37.00;52252.44;5032088;28;20048;-70
2023/01/03 12:12:28;;;;;;;;;;;;;;;-144.99;36.55;52215.75;5031765;28;19946;-68
2023/01/03 12:14:57;;;;;;;;;;;;;;;-144.99;35.61;52236.13;5032135;28;20005;-70
2023/01/03 12:17:26;;;;;;;;;;;;;;;-144.99;35.56;52227.97;5033778;28;20436;-69
2023/01/03 12:19:55;;;;;;;;;;;;;;;-144.99;36.20;52232.03;5044337;28;19954;-69
2023/01/03 12:22:25;;;;;;;;;;;;;;;-144.99;36.16;52268.72;5046380;28;19975;-69
2023/01/03 12:24:52;;;;;;;;;;;;;;;-144.99;36.27;52252.44;5028480;28;20303;-69
2023/01/03 12:27:22;;;;;;;;;;;;;;;-144.99;36.21;52244.28;5027940;28;20432;-69
2023/01/03 12:29:55;;;;;;;;;;;;;;;-144.99;34.74;52215.75;5025028;28;20000;-69
2023/01/03 12:32:27;;;;;;;;;;;;;;;-144.99;34.89;52272.81;5031422;28;19991;-69
2023/01/03 12:35:03;;;;;;;;;;;;;;;-144.99;35.08;52260.56;5024383;28;20358;-70
2023/01/03 12:37:30;;;;;;;;;;;;;;;-144.99;35.21;52285.03;5028307;28;19950;-69
2023/01/03 12:39:59;;;;;;;;;;;;;;;-144.99;35.05;52248.34;5028245;28;20057;-69
2023/01/03 12:42:31;;;;;;;;;;;;;;;-144.99;35.28;52256.50;5028296;28;20241;-69
2023/01/03 12:45:03;;;;;;;;;;;;;;;-144.99;34.91;52285.03;5027430;28;19970;-69
2023/01/03 12:47:33;;;;;;;;;;;;;;;-144.99;34.92;52256.50;5023903;28;19983;-68
2023/01/03 12:50:03;;;;;;;;;;;;;;;-144.99;34.84;52266.69;5027778;28;20046;-70
2023/01/03 12:52:32;;;;;;;;;;;;;;;-144.99;35.13;52313.56;5027908;28;19975;-69
2023/01/03 12:55:02;;;;;;;;;;;;;;;-144.99;35.25;52325.81;5027354;28;20054;-70
2023/01/03 12:57:45;;;;;;;;;;;;;;;-144.99;35.58;52331.91;5027781;28;19952;-69
2023/01/03 13:00:27;;;;;;;;;;;;;;;-144.99;35.65;52297.25;5027102;28;20085;-68
2023/01/03 13:02:58;;;;;;;;;;;;;;;-144.99;34.54;52264.66;5027827;28;20014;-68
2023/01/03 13:05:26;;;;;;;;;;;;;;;-144.99;34.53;52268.72;5027704;28;20001;-69
2023/01/03 13:07:58;;;;;;;;;;;;;;;-144.99;34.26;52295.22;5027369;28;20325;-70
2023/01/03 13:10:27;;;;;;;;;;;;;;;-144.99;34.86;52336.00;5026782;28;20009;-69
2023/01/03 13:12:54;;;;;;;;;;;;;;;-144.99;35.17;52333.94;5027019;28;20011;-70
2023/01/03 13:15:26;;;;;;;;;;;;;;;-144.99;34.61;52297.25;5027223;28;20014;-70
2023/01/03 13:17:52;;;;;;;;;;;;;;;-144.99;34.33;52327.84;5026954;28;20470;-68
2023/01/03 13:20:27;;;;;;;;;;;;;;;-144.99;34.85;52285.03;5035433;28;20050;-69
2023/01/03 13:22:54;;;;;;;;;;;;;;;-144.99;35.06;52319.69;5033113;28;20024;-69
2023/01/03 13:25:35;;;;;;;;;;;;;;;-144.99;34.68;52313.56;5027106;28;19960;-70
2023/01/03 13:28:05;;;;;;;;;;;;;;;-144.99;35.28;52352.28;5027011;28;19952;-70
2023/01/03 13:30:32;;;;;;;;;;;;;;;-144.99;35.55;52325.81;5027738;28;19962;-69
2023/01/03 13:33:06;;;;;;;;;;;;;;;-144.99;35.01;52285.03;5035336;28;19947;-69
2023/01/03 13:35:35;;;;;;;;;;;;;;;-144.99;35.19;52321.72;5026316;28;20304;-69
2023/01/03 13:38:17;;;;;;;;;;;;;;;-144.99;35.40;52362.50;5027080;28;20020;-70
2023/01/03 13:40:45;;;;;;;;;;;;;;;-144.99;35.71;52329.88;5033538;28;20067;-70
2023/01/03 13:43:15;;;;;;;;;;;;;;;-144.99;35.78;52362.50;5049199;28;20010;-70